createdAt,value
2018-11-26T00:02:26.448Z,4.02
2018-11-26T00:04:54.586Z,3.89
2018-11-26T00:07:22.730Z,3.84
2018-11-26T00:09:50.898Z,3.85
2018-11-26T00:12:19.046Z,3.74
2018-11-26T00:14:47.158Z,3.65
2018-11-26T00:17:15.283Z,3.45
2018-11-26T00:19:43.415Z,3.49
2018-11-26T00:22:11.624Z,3.42
2018-11-26T00:24:39.764Z,3.33
2018-11-26T00:27:08.002Z,3.20
2018-11-26T00:29:36.146Z,3.18
2018-11-26T00:32:04.318Z,3.15
2018-11-26T00:34:32.496Z,3.00
2018-11-26T00:37:00.680Z,3.02
2018-11-26T00:39:28.772Z,3.07
2018-11-26T00:41:56.940Z,2.97
2018-11-26T00:44:25.051Z,2.72
2018-11-26T00:46:53.169Z,2.86
2018-11-26T00:49:21.292Z,2.79
2018-11-26T00:51:49.516Z,2.68
2018-11-26T00:54:17.712Z,2.73
2018-11-26T00:56:45.914Z,2.58
2018-11-26T00:59:14.061Z,2.57
2018-11-26T01:01:42.180Z,2.54
2018-11-26T01:04:10.307Z,2.61
2018-11-26T01:06:38.410Z,2.45
2018-11-26T01:09:08.078Z,2.42
2018-11-26T01:11:36.187Z,2.34
2018-11-26T01:14:04.327Z,2.31
2018-11-26T01:16:32.565Z,2.21
2018-11-26T01:19:00.746Z,2.25
2018-11-26T01:21:28.867Z,2.31
2018-11-26T01:23:57.074Z,2.21
2018-11-26T01:26:25.264Z,2.30
2018-11-26T01:28:53.417Z,2.28
2018-11-26T01:31:21.616Z,2.27
2018-11-26T01:33:49.746Z,2.29
2018-11-26T01:36:17.881Z,2.11
2018-11-26T01:38:46.043Z,2.11
2018-11-26T01:41:14.246Z,2.16
2018-11-26T01:43:42.390Z,2.29
2018-11-26T01:46:10.473Z,2.16
2018-11-26T01:48:38.618Z,2.13
2018-11-26T01:51:07.034Z,2.09
2018-11-26T01:53:35.280Z,2.10
2018-11-26T01:56:03.438Z,1.96
2018-11-26T01:58:31.547Z,1.97
2018-11-26T02:00:59.654Z,1.93
2018-11-26T02:03:27.789Z,1.91
2018-11-26T02:05:55.890Z,1.94
2018-11-26T02:08:24.008Z,1.84
2018-11-26T02:10:52.131Z,1.83
2018-11-26T02:13:20.257Z,1.94
2018-11-26T02:15:48.392Z,2.03
2018-11-26T02:18:16.496Z,2.10
2018-11-26T02:20:44.598Z,1.99
2018-11-26T02:23:12.746Z,2.29
2018-11-26T02:25:40.905Z,2.25
2018-11-26T02:28:09.053Z,2.24
2018-11-26T02:30:37.169Z,2.17
2018-11-26T02:33:05.540Z,2.08
2018-11-26T02:35:33.754Z,2.07
2018-11-26T02:38:01.911Z,2.06
2018-11-26T02:40:31.295Z,2.12
2018-11-26T02:42:59.534Z,2.22
2018-11-26T02:45:28.865Z,2.26
2018-11-26T02:47:57.029Z,2.26
2018-11-26T02:50:25.182Z,2.30
2018-11-26T02:52:53.319Z,2.28
2018-11-26T02:55:21.414Z,2.24
2018-11-26T02:57:49.549Z,2.21
2018-11-26T03:00:17.674Z,2.18
2018-11-26T03:02:45.788Z,2.05
2018-11-26T03:05:20.774Z,2.01
2018-11-26T03:07:48.896Z,1.94
2018-11-26T03:10:17.045Z,1.93
2018-11-26T03:12:45.215Z,2.04
2018-11-26T03:15:13.329Z,2.13
2018-11-26T03:17:41.548Z,2.04
2018-11-26T03:20:10.323Z,1.88
2018-11-26T03:22:38.461Z,1.93
2018-11-26T03:25:09.022Z,1.93
2018-11-26T03:27:37.147Z,1.95
2018-11-26T03:30:15.701Z,1.91
2018-11-26T03:32:43.854Z,2.07
2018-11-26T03:35:11.936Z,2.19
2018-11-26T03:37:40.070Z,2.15
2018-11-26T03:40:10.498Z,2.15
2018-11-26T03:42:38.589Z,2.22
2018-11-26T03:45:10.137Z,2.12
2018-11-26T03:47:38.552Z,2.13
2018-11-26T03:50:06.902Z,2.27
2018-11-26T03:52:35.024Z,2.18
2018-11-26T03:55:03.309Z,1.89
2018-11-26T03:57:31.627Z,2.01
2018-11-26T03:59:59.770Z,2.07
2018-11-26T04:02:27.961Z,2.12
2018-11-26T04:04:56.860Z,2.02
2018-11-26T04:07:25.074Z,2.13
2018-11-26T04:09:53.316Z,2.05
2018-11-26T04:12:21.503Z,1.76
2018-11-26T04:14:49.876Z,1.70
2018-11-26T04:17:18.058Z,1.84
2018-11-26T04:19:46.224Z,1.75
2018-11-26T04:22:14.411Z,1.88
2018-11-26T04:24:42.653Z,2.03
2018-11-26T04:27:10.809Z,2.13
2018-11-26T04:29:39.020Z,2.14
2018-11-26T04:32:07.239Z,2.26
2018-11-26T04:34:38.347Z,2.30
2018-11-26T04:37:06.542Z,2.34
2018-11-26T04:39:34.715Z,2.17
2018-11-26T04:42:02.951Z,2.17
2018-11-26T04:44:31.221Z,2.24
2018-11-26T04:46:59.505Z,2.30
2018-11-26T04:49:27.846Z,2.29
2018-11-26T04:51:56.055Z,2.47
2018-11-26T04:54:24.650Z,2.40
2018-11-26T04:59:27.404Z,2.35
2018-11-26T05:01:55.651Z,2.42
2018-11-26T05:04:23.883Z,2.44
2018-11-26T05:06:52.103Z,2.40
2018-11-26T05:09:20.302Z,2.52
2018-11-26T05:11:49.289Z,2.42
2018-11-26T05:14:17.485Z,2.41
2018-11-26T05:16:45.855Z,2.36
2018-11-26T05:19:14.215Z,2.43
2018-11-26T05:21:42.397Z,2.46
2018-11-26T05:24:10.538Z,2.36
2018-11-26T05:26:38.810Z,2.43
2018-11-26T05:29:06.943Z,2.42
2018-11-26T05:31:35.077Z,2.51
2018-11-26T05:34:03.225Z,2.39
2018-11-26T05:36:31.495Z,2.27
2018-11-26T05:38:59.815Z,2.35
2018-11-26T05:41:28.087Z,2.50
2018-11-26T05:43:56.681Z,2.53
2018-11-26T05:46:24.917Z,2.49
2018-11-26T05:48:53.068Z,2.55
2018-11-26T05:51:21.189Z,2.58
2018-11-26T05:53:49.321Z,2.61
2018-11-26T05:56:17.493Z,2.64
2018-11-26T05:58:45.639Z,2.49
2018-11-26T06:01:13.767Z,2.53
2018-11-26T06:03:41.875Z,2.55
2018-11-26T06:06:10.028Z,2.53
2018-11-26T06:08:38.393Z,2.56
2018-11-26T06:11:06.587Z,2.46
2018-11-26T06:13:34.764Z,2.57
2018-11-26T06:16:03.133Z,2.66
2018-11-26T06:18:31.380Z,2.64
2018-11-26T06:20:59.602Z,2.67
2018-11-26T06:23:27.930Z,2.72
2018-11-26T06:25:56.135Z,2.65
2018-11-26T06:28:24.248Z,2.61
2018-11-26T06:30:52.407Z,2.59
2018-11-26T06:33:20.562Z,2.69
2018-11-26T06:35:48.749Z,2.74
2018-11-26T06:38:16.902Z,2.80
2018-11-26T06:40:45.037Z,2.77
2018-11-26T06:43:14.807Z,2.77
2018-11-26T06:45:43.151Z,2.74
2018-11-26T06:48:11.268Z,2.69
2018-11-26T06:50:39.474Z,2.82
2018-11-26T06:53:07.891Z,2.76
2018-11-26T06:55:36.037Z,2.81
2018-11-26T06:58:04.245Z,2.72
2018-11-26T07:00:32.350Z,2.77
2018-11-26T07:03:00.449Z,2.78
2018-11-26T07:05:28.654Z,2.79
2018-11-26T07:07:56.806Z,2.82
2018-11-26T07:10:24.886Z,2.78
2018-11-26T07:12:53.087Z,2.78
2018-11-26T07:15:22.224Z,2.85
2018-11-26T07:17:50.885Z,2.88
2018-11-26T07:20:19.854Z,2.83
2018-11-26T07:22:48.076Z,2.91
2018-11-26T07:25:17.515Z,2.92
2018-11-26T07:27:46.931Z,2.79
2018-11-26T07:30:18.177Z,2.81
2018-11-26T07:32:46.308Z,2.73
2018-11-26T07:35:14.987Z,2.89
2018-11-26T07:37:43.307Z,2.97
2018-11-26T07:40:12.612Z,2.97
2018-11-26T07:42:46.219Z,2.93
2018-11-26T07:45:14.578Z,3.02
2018-11-26T07:47:42.743Z,3.14
2018-11-26T07:50:13.994Z,3.09
2018-11-26T07:52:42.172Z,3.06
2018-11-26T07:55:13.713Z,3.09
2018-11-26T07:57:41.967Z,3.05
2018-11-26T08:00:13.285Z,3.08
2018-11-26T08:02:41.595Z,3.09
2018-11-26T08:05:11.290Z,3.16
2018-11-26T08:07:39.530Z,3.08
2018-11-26T08:10:13.841Z,3.12
2018-11-26T08:12:42.331Z,3.13
2018-11-26T08:15:14.773Z,3.15
2018-11-26T08:17:43.073Z,3.16
2018-11-26T08:20:11.443Z,3.16
2018-11-26T08:22:39.580Z,3.13
2018-11-26T08:25:10.709Z,3.09
2018-11-26T08:27:39.232Z,3.29
2018-11-26T08:30:13.637Z,3.37
2018-11-26T08:32:42.083Z,3.31
2018-11-26T08:35:11.964Z,3.21
2018-11-26T08:37:45.393Z,3.22
2018-11-26T08:40:16.909Z,3.18
2018-11-26T08:42:50.273Z,3.24
2018-11-26T08:45:20.632Z,3.23
2018-11-26T08:47:58.832Z,3.25
2018-11-26T08:50:27.210Z,3.22
2018-11-26T08:52:55.418Z,3.40
2018-11-26T08:55:23.684Z,3.35
2018-11-26T08:57:51.927Z,3.39
2018-11-26T09:00:20.141Z,3.37
2018-11-26T09:02:49.072Z,3.34
2018-11-26T09:06:26.515Z,3.44
2018-11-26T09:08:54.872Z,3.49
2018-11-26T09:11:23.223Z,3.56
2018-11-26T09:13:51.414Z,3.65
2018-11-26T09:16:19.591Z,3.66
2018-11-26T09:18:47.828Z,3.65
2018-11-26T09:21:16.007Z,3.65
2018-11-26T09:23:44.219Z,3.55
2018-11-26T09:26:12.380Z,3.65
2018-11-26T09:28:40.576Z,3.69
2018-11-26T09:31:08.772Z,3.52
2018-11-26T09:33:36.865Z,3.56
2018-11-26T09:36:05.233Z,3.67
2018-11-26T09:38:33.405Z,3.78
2018-11-26T09:41:01.553Z,3.73
2018-11-26T09:43:29.690Z,3.78
2018-11-26T09:45:57.856Z,3.80
2018-11-26T09:48:25.970Z,3.81
2018-11-26T09:50:54.182Z,3.89
2018-11-26T09:53:22.329Z,3.87
2018-11-26T09:55:50.480Z,4.02
2018-11-26T09:58:18.630Z,4.07
2018-11-26T10:00:46.803Z,4.05
2018-11-26T10:03:14.985Z,4.27
2018-11-26T10:05:43.119Z,4.13
2018-11-26T10:08:11.285Z,4.08
2018-11-26T10:10:39.425Z,3.81
2018-11-26T10:13:07.800Z,3.85
2018-11-26T10:15:35.953Z,3.84
2018-11-26T10:18:04.074Z,3.89
2018-11-26T10:20:32.171Z,3.91
2018-11-26T10:23:00.300Z,3.97
2018-11-26T10:25:28.478Z,4.03
2018-11-26T10:27:56.666Z,4.05
2018-11-26T10:30:25.145Z,4.26
2018-11-26T10:32:53.886Z,4.31
2018-11-26T10:35:22.365Z,4.28
2018-11-26T10:37:50.518Z,4.24
2018-11-26T10:40:20.042Z,4.28
2018-11-26T10:42:48.165Z,4.30
2018-11-26T10:45:17.494Z,4.28
2018-11-26T10:47:45.621Z,4.13
2018-11-26T10:50:15.943Z,4.20
2018-11-26T10:52:52.998Z,4.20
2018-11-26T10:55:27.020Z,4.11
2018-11-26T10:57:55.123Z,4.17
2018-11-26T11:00:28.556Z,4.35
2018-11-26T11:02:56.643Z,4.28
2018-11-26T11:05:24.753Z,4.26
2018-11-26T11:07:52.900Z,4.26
2018-11-26T11:10:25.089Z,4.32
2018-11-26T11:12:53.267Z,4.36
2018-11-26T11:15:21.460Z,4.30
2018-11-26T11:17:49.603Z,4.34
2018-11-26T11:20:20.653Z,4.30
2018-11-26T11:22:48.823Z,4.39
2018-11-26T11:25:17.678Z,4.45
2018-11-26T11:27:46.006Z,4.31
2018-11-26T11:30:23.266Z,4.43
2018-11-26T11:32:51.541Z,4.54
2018-11-26T11:35:19.964Z,4.43
2018-11-26T11:37:48.987Z,4.61
2018-11-26T11:40:27.111Z,4.66
2018-11-26T11:42:55.425Z,4.69
2018-11-26T11:45:23.985Z,4.73
2018-11-26T11:47:52.539Z,4.64
2018-11-26T11:50:21.421Z,4.64
2018-11-26T11:52:49.970Z,4.69
2018-11-26T11:55:20.021Z,4.73
2018-11-26T11:57:48.197Z,4.62
2018-11-26T12:00:27.383Z,4.58
2018-11-26T12:02:55.651Z,4.49
2018-11-26T12:05:24.117Z,4.38
2018-11-26T12:07:52.286Z,4.41
2018-11-26T12:10:20.577Z,4.48
2018-11-26T12:12:48.824Z,4.42
2018-11-26T12:15:17.393Z,4.38
2018-11-26T12:17:46.424Z,4.42
2018-11-26T12:20:15.385Z,4.41
2018-11-26T12:22:43.935Z,4.51
2018-11-26T12:25:17.318Z,4.44
2018-11-26T12:27:45.499Z,4.52
2018-11-26T12:30:19.890Z,4.32
2018-11-26T12:32:48.082Z,4.42
2018-11-26T12:35:16.263Z,4.40
2018-11-26T12:37:44.563Z,4.41
2018-11-26T12:40:19.228Z,4.41
2018-11-26T12:42:47.675Z,4.38
2018-11-26T12:45:17.318Z,4.40
2018-11-26T12:47:45.435Z,4.42
2018-11-26T12:50:13.608Z,4.39
2018-11-26T12:52:41.825Z,4.05
2018-11-26T12:55:11.604Z,4.12
2018-11-26T12:57:40.435Z,4.30
2018-11-26T13:00:14.472Z,4.19
2018-11-26T13:02:42.766Z,4.13
2018-11-26T13:05:12.410Z,4.09
2018-11-26T13:07:40.766Z,4.26
2018-11-26T13:10:10.615Z,4.29
2018-11-26T13:12:38.731Z,4.27
2018-11-26T13:15:12.129Z,4.39
2018-11-26T13:17:40.377Z,4.38
2018-11-26T13:20:27.145Z,4.31
2018-11-26T13:22:55.407Z,4.39
2018-11-26T13:25:24.774Z,4.04
2018-11-26T13:27:54.051Z,4.25
2018-11-26T13:30:25.627Z,4.20
2018-11-26T13:32:55.196Z,3.93
2018-11-26T13:35:23.415Z,3.91
2018-11-26T13:37:51.585Z,3.89
2018-11-26T13:40:20.334Z,4.19
2018-11-26T13:42:48.885Z,4.01
2018-11-26T13:45:23.369Z,4.02
2018-11-26T13:47:51.595Z,4.00
2018-11-26T13:50:24.860Z,3.95
2018-11-26T13:52:53.194Z,3.98
2018-11-26T13:55:21.497Z,4.15
2018-11-26T13:57:49.924Z,4.28
2018-11-26T14:00:18.235Z,4.24
2018-11-26T14:02:46.494Z,4.16
2018-11-26T14:05:15.652Z,4.24
2018-11-26T14:07:44.392Z,4.05
2018-11-26T14:10:15.775Z,3.96
2018-11-26T14:12:44.523Z,4.10
2018-11-26T14:15:13.956Z,4.09
2018-11-26T14:17:42.137Z,4.14
2018-11-26T14:20:15.714Z,4.06
2018-11-26T14:22:43.913Z,4.12
2018-11-26T14:25:14.093Z,3.97
2018-11-26T14:27:42.915Z,3.82
2018-11-26T14:30:18.863Z,3.85
2018-11-26T14:32:47.033Z,4.00
2018-11-26T14:35:15.179Z,3.92
2018-11-26T14:37:43.350Z,3.96
2018-11-26T14:40:13.178Z,3.91
2018-11-26T14:42:41.645Z,3.90
2018-11-26T14:45:11.351Z,3.93
2018-11-26T14:47:39.630Z,3.95
2018-11-26T14:50:10.058Z,4.03
2018-11-26T14:52:38.284Z,3.95
2018-11-26T14:55:09.424Z,3.86
2018-11-26T14:57:37.637Z,3.97
2018-11-26T15:00:08.753Z,3.98
2018-11-26T15:02:36.923Z,3.85
2018-11-26T15:05:05.409Z,4.03
2018-11-26T15:07:33.653Z,4.12
2018-11-26T15:10:01.889Z,4.11
2018-11-26T15:12:30.183Z,4.10
2018-11-26T15:14:58.395Z,4.08
2018-11-26T15:17:26.545Z,4.10
2018-11-26T15:19:54.721Z,3.85
2018-11-26T15:22:22.859Z,3.93
2018-11-26T15:24:50.972Z,4.00
2018-11-26T15:27:19.134Z,3.97
2018-11-26T15:29:47.423Z,3.96
2018-11-26T15:32:15.579Z,3.98
2018-11-26T15:34:43.745Z,3.79
2018-11-26T15:37:11.912Z,3.78
2018-11-26T15:39:40.091Z,3.68
2018-11-26T15:42:08.234Z,3.76
2018-11-26T15:44:36.363Z,3.68
2018-11-26T15:47:04.855Z,3.74
2018-11-26T15:49:32.875Z,3.61
2018-11-26T15:52:01.039Z,3.70
2018-11-26T15:54:29.255Z,3.61
2018-11-26T15:56:57.370Z,3.73
2018-11-26T15:59:25.668Z,3.70
2018-11-26T16:01:53.970Z,3.69
2018-11-26T16:04:22.327Z,3.69
2018-11-26T16:06:50.477Z,3.73
2018-11-26T16:09:18.719Z,3.73
2018-11-26T16:11:46.979Z,3.91
2018-11-26T16:14:15.235Z,3.94
2018-11-26T16:16:43.444Z,3.95
2018-11-26T16:19:11.652Z,3.88
2018-11-26T16:21:39.988Z,3.85
2018-11-26T16:24:08.201Z,3.83
2018-11-26T16:26:36.311Z,3.87
2018-11-26T16:29:04.708Z,3.68
2018-11-26T16:31:32.873Z,3.70
2018-11-26T16:34:01.111Z,3.68
2018-11-26T16:36:29.219Z,3.67
2018-11-26T16:38:57.365Z,3.70
2018-11-26T16:41:25.562Z,3.68
2018-11-26T16:43:53.695Z,3.64
2018-11-26T16:46:21.919Z,3.61
2018-11-26T16:48:50.053Z,3.66
2018-11-26T16:51:18.344Z,3.66
2018-11-26T16:53:46.475Z,3.72
2018-11-26T16:56:14.771Z,3.72
2018-11-26T16:58:42.853Z,3.76
2018-11-26T17:01:10.978Z,3.77
2018-11-26T17:03:39.132Z,3.75
2018-11-26T17:06:07.339Z,3.67
2018-11-26T17:08:35.592Z,3.61
2018-11-26T17:11:03.774Z,3.65
2018-11-26T17:13:31.890Z,3.57
2018-11-26T17:16:00.043Z,3.67
2018-11-26T17:18:28.328Z,3.77
2018-11-26T17:20:56.524Z,3.81
2018-11-26T17:23:24.694Z,3.75
2018-11-26T17:25:52.833Z,3.58
2018-11-26T17:28:21.050Z,3.73
2018-11-26T17:30:49.217Z,3.79
2018-11-26T17:33:17.791Z,3.79
2018-11-26T17:35:45.676Z,3.78
2018-11-26T17:38:13.835Z,3.80
2018-11-26T17:40:41.961Z,3.67
2018-11-26T17:43:13.051Z,3.65
2018-11-26T17:45:41.170Z,3.75
2018-11-26T17:48:09.300Z,3.69
2018-11-26T17:50:42.662Z,3.79
2018-11-26T17:53:13.339Z,3.75
2018-11-26T17:55:51.547Z,3.66
2018-11-26T17:58:20.940Z,3.61
2018-11-26T18:00:51.311Z,3.59
2018-11-26T18:03:19.467Z,3.62
2018-11-26T18:05:47.686Z,3.76
2018-11-26T18:08:17.764Z,3.79
2018-11-26T18:10:46.171Z,3.67
2018-11-26T18:13:14.367Z,3.78
2018-11-26T18:15:43.141Z,3.70
2018-11-26T18:18:12.879Z,3.81
2018-11-26T18:20:40.975Z,3.77
2018-11-26T18:23:10.129Z,3.81
2018-11-26T18:25:38.266Z,3.78
2018-11-26T18:28:09.970Z,3.70
2018-11-26T18:30:47.673Z,3.72
2018-11-26T18:33:15.839Z,3.84
2018-11-26T18:35:44.523Z,3.73
2018-11-26T18:38:12.696Z,3.77
2018-11-26T18:40:42.057Z,3.80
2018-11-26T18:43:10.512Z,3.79
2018-11-26T18:45:39.711Z,3.77
2018-11-26T18:48:08.894Z,3.84
2018-11-26T18:50:37.091Z,3.88
2018-11-26T18:53:05.558Z,3.75
2018-11-26T18:55:33.764Z,3.81
2018-11-26T18:58:01.963Z,3.68
2018-11-26T19:00:31.646Z,3.57
2018-11-26T19:02:59.940Z,3.68
2018-11-26T19:05:28.129Z,3.79
2018-11-26T19:07:56.332Z,3.75
2018-11-26T19:10:30.325Z,3.81
2018-11-26T19:13:01.209Z,3.78
2018-11-26T19:15:34.245Z,3.73
2018-11-26T19:18:13.731Z,3.62
2018-11-26T19:20:41.992Z,3.73
2018-11-26T19:23:11.132Z,3.74
2018-11-26T19:25:39.399Z,3.80
2018-11-26T19:28:07.616Z,3.83
2018-11-26T19:30:36.993Z,3.88
2018-11-26T19:33:07.093Z,3.85
2018-11-26T19:35:35.373Z,3.87
2018-11-26T19:38:03.642Z,3.77
2018-11-26T19:40:32.023Z,3.86
2018-11-26T19:43:00.351Z,3.87
2018-11-26T19:45:28.595Z,3.81
2018-11-26T19:47:56.986Z,3.84
2018-11-26T19:50:25.286Z,3.73
2018-11-26T19:52:54.242Z,3.56
2018-11-26T19:55:25.761Z,3.76
2018-11-26T19:57:55.192Z,3.69
2018-11-26T20:00:25.682Z,3.64
2018-11-26T20:02:57.572Z,3.74
2018-11-26T20:05:35.169Z,3.69
2018-11-26T20:08:03.454Z,3.70
2018-11-26T20:10:31.800Z,3.73
2018-11-26T20:13:01.225Z,3.75
2018-11-26T20:15:29.485Z,3.61
2018-11-26T20:17:59.160Z,3.58
2018-11-26T20:20:26.488Z,3.40
2018-11-26T20:22:54.890Z,3.44
2018-11-26T20:25:23.261Z,3.36
2018-11-26T20:27:51.639Z,3.36
2018-11-26T20:30:20.168Z,3.29
2018-11-26T20:32:48.629Z,3.23
2018-11-26T20:35:16.890Z,3.23
2018-11-26T20:37:45.186Z,3.26
2018-11-26T20:40:15.727Z,3.28
2018-11-26T20:42:47.017Z,3.24
2018-11-26T20:45:16.083Z,3.09
2018-11-26T20:47:45.308Z,3.08
2018-11-26T20:50:20.323Z,3.08
2018-11-26T20:52:48.891Z,2.95
2018-11-26T20:55:19.058Z,2.84
2018-11-26T20:57:49.080Z,2.81
2018-11-26T21:00:19.363Z,2.84
2018-11-26T21:02:49.729Z,2.79
2018-11-26T21:05:19.034Z,2.77
2018-11-26T21:07:47.377Z,2.60
2018-11-26T21:10:16.678Z,2.66
2018-11-26T21:12:44.876Z,2.50
2018-11-26T21:15:14.202Z,2.49
2018-11-26T21:17:43.665Z,2.40
2018-11-26T21:20:17.798Z,2.40
2018-11-26T21:22:46.110Z,2.37
2018-11-26T21:25:16.331Z,2.27
2018-11-26T21:27:44.632Z,2.25
2018-11-26T21:30:17.954Z,2.17
2018-11-26T21:32:46.196Z,2.17
2018-11-26T21:35:17.722Z,2.26
2018-11-26T21:37:47.346Z,2.13
2018-11-26T21:40:20.325Z,2.01
2018-11-26T21:42:45.214Z,1.90
2018-11-26T21:45:19.926Z,1.86
2018-11-26T21:47:48.223Z,1.83
2018-11-26T21:50:17.287Z,1.67
2018-11-26T21:52:45.569Z,1.75
2018-11-26T21:55:17.838Z,1.72
2018-11-26T21:57:46.098Z,1.67
2018-11-26T22:00:29.581Z,1.65
2018-11-26T22:02:58.279Z,1.67
2018-11-26T22:05:26.631Z,1.51
2018-11-26T22:07:54.876Z,1.48
2018-11-26T22:10:24.531Z,1.50
2018-11-26T22:12:54.753Z,1.38
2018-11-26T22:15:22.937Z,1.42
2018-11-26T22:17:51.113Z,1.39
2018-11-26T22:20:23.524Z,1.38
2018-11-26T22:22:51.717Z,1.37
2018-11-26T22:25:19.913Z,1.41
2018-11-26T22:27:48.150Z,1.43
2018-11-26T22:30:25.633Z,1.46
2018-11-26T22:32:53.879Z,1.41
2018-11-26T22:35:22.047Z,1.34
2018-11-26T22:37:50.979Z,1.16
2018-11-26T22:40:23.223Z,1.29
2018-11-26T22:42:51.487Z,1.26
2018-11-26T22:45:21.677Z,1.11
2018-11-26T22:47:52.260Z,1.12
2018-11-26T22:50:20.486Z,1.17
2018-11-26T22:52:48.627Z,1.04
2018-11-26T22:55:16.855Z,1.15
2018-11-26T22:57:45.461Z,1.14
2018-11-26T23:00:28.069Z,1.21
2018-11-26T23:02:58.181Z,1.03
2018-11-26T23:05:26.337Z,1.05
2018-11-26T23:07:54.507Z,1.08
2018-11-26T23:10:22.699Z,1.05
2018-11-26T23:12:50.879Z,1.01
2018-11-26T23:15:19.322Z,0.98
2018-11-26T23:17:48.047Z,1.00
2018-11-26T23:20:17.117Z,0.82
2018-11-26T23:22:45.275Z,0.90
2018-11-26T23:25:15.345Z,0.91
2018-11-26T23:27:43.479Z,0.94
2018-11-26T23:30:18.710Z,0.86
2018-11-26T23:32:48.103Z,0.82
2018-11-26T23:35:16.277Z,0.76
2018-11-26T23:37:44.391Z,0.77
2018-11-26T23:40:13.268Z,0.59
2018-11-26T23:42:41.391Z,0.68
2018-11-26T23:45:13.517Z,0.67
2018-11-26T23:47:41.866Z,0.70
2018-11-26T23:50:12.814Z,0.62
2018-11-26T23:52:41.328Z,0.60
2018-11-26T23:55:13.421Z,0.46
2018-11-26T23:57:41.534Z,0.60
